createdAt,value
2023-04-15T00:01:06.008Z,97031.41
2023-04-15T00:04:10.526Z,97029.91
2023-04-15T00:07:16.369Z,97030.06
2023-04-15T00:10:20.380Z,97027.34
2023-04-15T00:13:25.020Z,97018.97
2023-04-15T00:16:28.919Z,97010.25
2023-04-15T00:19:33.469Z,97022.38
2023-04-15T00:22:38.891Z,97027.06
2023-04-15T00:25:42.453Z,97021.84
2023-04-15T00:28:46.139Z,97034.38
2023-04-15T00:31:51.126Z,97041.03
2023-04-15T00:34:55.491Z,97046.34
2023-04-15T00:38:00.770Z,97048.72
2023-04-15T00:41:05.316Z,97044.06
2023-04-15T00:44:09.380Z,97039.75
2023-04-15T00:47:19.467Z,97050.00
2023-04-15T00:50:23.799Z,97058.84
2023-04-15T00:53:29.235Z,97065.16
2023-04-15T00:56:36.260Z,97070.16
2023-04-15T00:59:40.087Z,97071.03
2023-04-15T01:02:44.079Z,97075.31
2023-04-15T01:05:48.348Z,97077.06
2023-04-15T01:08:54.159Z,97077.06
2023-04-15T01:11:58.678Z,97063.06
2023-04-15T01:15:03.976Z,97057.28
2023-04-15T01:18:08.503Z,97065.94
2023-04-15T01:21:14.715Z,97048.28
2023-04-15T01:24:21.423Z,97054.25
2023-04-15T01:27:27.116Z,97056.22
2023-04-15T01:30:30.930Z,97054.78
2023-04-15T01:33:34.349Z,97055.19
2023-04-15T01:36:56.906Z,97065.63
2023-04-15T01:40:00.507Z,97065.84
2023-04-15T01:43:05.562Z,97063.44
2023-04-15T01:46:10.281Z,97058.44
2023-04-15T01:49:15.432Z,97069.19
2023-04-15T01:52:20.125Z,97066.78
2023-04-15T01:55:25.570Z,97066.81
2023-04-15T01:58:31.729Z,97066.78
2023-04-15T02:01:36.979Z,97061.28
2023-04-15T02:04:41.688Z,97061.44
2023-04-15T02:07:47.424Z,97064.59
2023-04-15T02:10:52.841Z,97062.50
2023-04-15T02:13:59.320Z,97053.31
2023-04-15T02:17:07.480Z,97070.03
2023-04-15T02:20:13.329Z,97067.38
2023-04-15T02:23:18.325Z,97067.38
2023-04-15T02:26:23.513Z,97068.19
2023-04-15T02:29:30.009Z,97065.03
2023-04-15T02:32:35.276Z,97057.81
2023-04-15T02:35:44.284Z,97061.25
2023-04-15T02:38:49.616Z,97067.44
2023-04-15T02:41:55.361Z,97062.41
2023-04-15T02:45:04.503Z,97063.13
2023-04-15T02:48:12.361Z,97069.66
2023-04-15T02:51:19.961Z,97064.56
2023-04-15T02:54:25.955Z,97070.81
2023-04-15T02:57:31.112Z,97079.38
2023-04-15T03:00:42.773Z,97069.06
2023-04-15T03:03:47.976Z,97066.88
2023-04-15T03:06:52.669Z,97087.09
2023-04-15T03:09:57.932Z,97074.41
2023-04-15T03:13:03.153Z,97081.63
2023-04-15T03:16:11.345Z,97092.72
2023-04-15T03:19:16.691Z,97087.31
2023-04-15T03:22:23.205Z,97095.19
2023-04-15T03:30:15.058Z,97101.94
2023-04-15T03:33:21.284Z,97088.00
2023-04-15T03:36:27.331Z,97103.22
2023-04-15T03:39:32.331Z,97097.19
2023-04-15T03:42:37.345Z,97100.53
2023-04-15T03:45:41.979Z,97110.84
2023-04-15T03:48:48.338Z,97116.25
2023-04-15T03:51:53.417Z,97121.16
2023-04-15T03:54:59.544Z,97119.31
2023-04-15T03:58:04.218Z,97122.97
2023-04-15T04:01:09.627Z,97127.81
2023-04-15T04:04:15.989Z,97128.91
2023-04-15T04:07:21.011Z,97131.44
2023-04-15T04:10:25.744Z,97138.19
2023-04-15T04:13:30.775Z,97145.88
2023-04-15T04:16:35.822Z,97142.25
2023-04-15T04:19:42.694Z,97137.66
2023-04-15T04:22:47.416Z,97148.03
2023-04-15T04:25:52.706Z,97144.28
2023-04-15T04:28:58.864Z,97151.47
2023-04-15T04:32:04.237Z,97152.44
2023-04-15T04:35:11.463Z,97152.63
2023-04-15T04:38:17.107Z,97156.63
2023-04-15T04:41:23.211Z,97156.81
2023-04-15T04:44:28.279Z,97154.69
2023-04-15T04:47:33.218Z,97155.34
2023-04-15T04:50:39.688Z,97164.06
2023-04-15T04:53:44.523Z,97170.97
2023-04-15T04:56:49.663Z,97173.06
2023-04-15T04:59:54.335Z,97179.53
2023-04-15T05:02:59.805Z,97174.22
2023-04-15T05:06:08.779Z,97176.91
2023-04-15T05:09:13.826Z,97168.81
2023-04-15T05:12:18.582Z,97174.28
2023-04-15T05:15:23.956Z,97163.59
2023-04-15T05:18:29.164Z,97168.78
2023-04-15T05:21:37.578Z,97162.22
2023-04-15T05:24:44.416Z,97168.00
2023-04-15T05:27:49.650Z,97166.66
2023-04-15T05:30:54.481Z,97169.38
2023-04-15T05:33:59.911Z,97171.09
2023-04-15T05:37:06.052Z,97163.25
2023-04-15T05:40:11.731Z,97171.03
2023-04-15T05:43:16.668Z,97176.78
2023-04-15T05:46:22.821Z,97172.94
2023-04-15T05:49:27.852Z,97175.25
2023-04-15T05:52:35.908Z,97175.72
2023-04-15T05:55:41.246Z,97173.00
2023-04-15T05:58:47.532Z,97173.50
2023-04-15T06:01:53.805Z,97174.09
2023-04-15T06:05:01.462Z,97173.09
2023-04-15T06:08:08.418Z,97175.38
2023-04-15T06:11:13.949Z,97184.41
2023-04-15T06:14:18.809Z,97185.81
2023-04-15T06:17:24.360Z,97184.09
2023-04-15T06:20:29.658Z,97173.69
2023-04-15T06:23:37.875Z,97173.50
2023-04-15T06:26:45.199Z,97178.56
2023-04-15T06:29:50.302Z,97174.09
2023-04-15T06:32:56.829Z,97160.31
2023-04-15T06:36:02.512Z,97161.88
2023-04-15T06:39:08.800Z,97171.41
2023-04-15T06:42:14.000Z,97168.28
2023-04-15T06:45:19.018Z,97166.31
2023-04-15T06:48:24.469Z,97180.25
2023-04-15T06:51:29.197Z,97173.00
2023-04-15T06:54:35.839Z,97183.72
2023-04-15T06:57:40.718Z,97180.72
2023-04-15T07:00:46.233Z,97176.63
2023-04-15T07:03:51.818Z,97180.75
2023-04-15T07:07:01.543Z,97175.69
2023-04-15T07:10:12.048Z,97177.41
2023-04-15T07:13:21.360Z,97170.19
2023-04-15T07:16:27.857Z,97168.78
2023-04-15T07:19:35.056Z,97159.34
2023-04-15T07:22:40.327Z,97158.84
2023-04-15T07:25:47.746Z,97163.13
2023-04-15T07:28:52.926Z,97169.66
2023-04-15T07:31:57.916Z,97174.72
2023-04-15T07:35:03.792Z,97173.56
2023-04-15T07:38:08.881Z,97178.03
2023-04-15T07:41:15.917Z,97176.34
2023-04-15T07:44:20.968Z,97176.75
2023-04-15T07:47:25.969Z,97173.97
2023-04-15T07:50:30.950Z,97182.31
2023-04-15T07:53:35.726Z,97187.03
2023-04-15T07:56:42.162Z,97183.31
2023-04-15T07:59:46.943Z,97178.06
2023-04-15T08:02:53.334Z,97192.13
2023-04-15T08:05:58.312Z,97188.00
2023-04-15T08:09:03.636Z,97179.97
2023-04-15T08:12:12.593Z,97180.34
2023-04-15T08:15:18.163Z,97181.22
2023-04-15T08:18:22.942Z,97177.16
2023-04-15T08:21:30.825Z,97182.22
2023-04-15T08:24:35.905Z,97177.53
2023-04-15T08:27:45.777Z,97182.00
2023-04-15T08:31:16.625Z,97182.97
2023-04-15T08:34:22.237Z,97185.50
2023-04-15T08:37:26.985Z,97177.53
2023-04-15T08:40:42.740Z,97172.03
2023-04-15T08:43:54.659Z,97184.56
2023-04-15T08:47:02.943Z,97181.09
2023-04-15T08:50:11.830Z,97173.06
2023-04-15T08:53:17.245Z,97182.19
2023-04-15T08:56:26.202Z,97184.97
2023-04-15T08:59:33.920Z,97183.72
2023-04-15T09:02:39.077Z,97176.16
2023-04-15T09:05:44.506Z,97179.44
2023-04-15T09:08:49.244Z,97186.81
2023-04-15T09:11:55.234Z,97185.28
2023-04-15T09:15:04.984Z,97178.97
2023-04-15T09:18:13.247Z,97178.66
2023-04-15T09:21:19.254Z,97188.22
2023-04-15T09:24:28.215Z,97175.88
2023-04-15T09:27:39.318Z,97180.25
2023-04-15T09:30:49.748Z,97173.25
2023-04-15T09:33:57.979Z,97173.50
2023-04-15T09:37:03.556Z,97189.69
2023-04-15T09:40:10.247Z,97179.56
2023-04-15T09:43:17.405Z,97190.22
2023-04-15T09:46:42.336Z,97180.56
2023-04-15T09:55:04.043Z,97172.78
2023-04-15T09:58:11.872Z,97177.47
2023-04-15T10:01:17.184Z,97176.06
2023-04-15T10:04:23.926Z,97183.34
2023-04-15T10:07:29.735Z,97175.75
2023-04-15T10:10:34.946Z,97175.91
2023-04-15T10:13:40.856Z,97173.63
2023-04-15T10:16:49.658Z,97171.59
2023-04-15T10:19:56.268Z,97173.09
2023-04-15T10:23:01.141Z,97180.50
2023-04-15T10:26:07.042Z,97175.75
2023-04-15T10:29:12.463Z,97168.34
2023-04-15T10:32:20.184Z,97170.00
2023-04-15T10:35:27.007Z,97157.25
2023-04-15T10:38:36.844Z,97161.38
2023-04-15T10:41:41.532Z,97160.31
2023-04-15T10:44:49.958Z,97154.78
2023-04-15T10:47:57.539Z,97161.53
2023-04-15T10:51:05.269Z,97149.66
2023-04-15T10:54:14.952Z,97156.84
2023-04-15T10:57:24.881Z,97149.22
2023-04-15T11:00:31.923Z,97146.75
2023-04-15T11:03:43.873Z,97141.19
2023-04-15T11:07:08.680Z,97145.31
2023-04-15T11:11:02.935Z,97149.66
2023-04-15T11:14:15.930Z,97148.56
2023-04-15T11:17:30.042Z,97144.00
2023-04-15T11:20:35.435Z,97147.25
2023-04-15T11:23:44.332Z,97146.69
2023-04-15T11:26:49.469Z,97150.84
2023-04-15T11:29:56.579Z,97151.06
2023-04-15T11:33:03.876Z,97147.22
2023-04-15T11:36:09.127Z,97139.47
2023-04-15T11:39:16.926Z,97134.78
2023-04-15T11:42:21.533Z,97136.78
2023-04-15T11:45:26.850Z,97136.56
2023-04-15T11:48:33.885Z,97134.44
2023-04-15T11:51:39.146Z,97136.66
2023-04-15T11:54:44.012Z,97135.97
2023-04-15T11:57:47.776Z,97138.13
2023-04-15T12:00:54.149Z,97134.53
2023-04-15T12:03:59.927Z,97140.03
2023-04-15T12:07:06.653Z,97127.75
2023-04-15T12:10:11.982Z,97131.47
2023-04-15T12:13:16.387Z,97127.97
2023-04-15T12:16:20.911Z,97127.97
2023-04-15T12:19:26.679Z,97125.06
2023-04-15T12:22:30.588Z,97118.22
2023-04-15T12:25:38.809Z,97132.59
2023-04-15T12:28:42.741Z,97132.94
2023-04-15T12:31:54.062Z,97111.00
2023-04-15T12:34:58.304Z,97127.28
2023-04-15T12:38:01.708Z,97128.19
2023-04-15T12:41:06.925Z,97118.94
2023-04-15T12:44:10.395Z,97131.25
2023-04-15T12:47:14.687Z,97131.25
2023-04-15T12:50:18.628Z,97132.72
2023-04-15T12:53:23.180Z,97131.34
2023-04-15T12:56:28.095Z,97137.34
2023-04-15T12:59:32.079Z,97139.75
2023-04-15T13:02:35.596Z,97132.06
2023-04-15T13:05:40.699Z,97137.41
2023-04-15T13:08:57.267Z,97131.53
2023-04-15T13:12:05.473Z,97133.25
2023-04-15T13:15:11.433Z,97131.75
2023-04-15T13:18:16.030Z,97131.09
2023-04-15T13:21:21.589Z,97132.72
2023-04-15T13:24:25.848Z,97140.56
2023-04-15T13:27:31.570Z,97132.50
2023-04-15T13:30:35.592Z,97135.44
2023-04-15T13:33:39.174Z,97131.31
2023-04-15T13:36:43.431Z,97128.25
2023-04-15T13:39:50.504Z,97131.25
2023-04-15T13:43:04.876Z,97126.84
2023-04-15T13:46:08.689Z,97125.91
2023-04-15T13:49:12.713Z,97129.34
2023-04-15T13:52:16.282Z,97129.84
2023-04-15T13:55:22.230Z,97117.75
2023-04-15T13:58:30.637Z,97121.28
2023-04-15T14:01:35.495Z,97121.22
2023-04-15T14:04:39.276Z,97115.97
2023-04-15T14:07:43.578Z,97115.00
2023-04-15T14:10:48.667Z,97111.06
2023-04-15T14:13:53.803Z,97104.53
2023-04-15T14:16:58.848Z,97106.63
2023-04-15T14:20:02.823Z,97108.72
2023-04-15T14:23:06.342Z,97113.59
2023-04-15T14:26:28.359Z,97115.84
2023-04-15T14:29:33.203Z,97112.06
2023-04-15T14:32:36.944Z,97111.50
2023-04-15T14:35:40.607Z,97120.31
2023-04-15T14:38:44.331Z,97112.94
2023-04-15T14:41:48.192Z,97118.31
2023-04-15T14:44:53.472Z,97122.09
2023-04-15T14:47:57.859Z,97125.53
2023-04-15T14:51:03.246Z,97118.91
2023-04-15T14:54:06.905Z,97123.25
2023-04-15T14:57:10.943Z,97120.88
2023-04-15T15:00:16.496Z,97128.78
2023-04-15T15:03:20.608Z,97125.97
2023-04-15T15:06:24.343Z,97125.22
2023-04-15T15:09:28.299Z,97134.66
2023-04-15T15:12:31.854Z,97132.53
2023-04-15T15:15:38.691Z,97117.94
2023-04-15T15:18:42.564Z,97115.59
2023-04-15T15:21:50.117Z,97119.03
2023-04-15T15:24:53.703Z,97118.03
2023-04-15T15:27:58.771Z,97119.47
2023-04-15T15:31:04.579Z,97127.50
2023-04-15T15:34:09.581Z,97112.28
2023-04-15T15:37:15.831Z,97117.94
2023-04-15T15:40:19.671Z,97120.53
2023-04-15T15:43:23.125Z,97109.47
2023-04-15T15:46:31.448Z,97116.09
2023-04-15T15:49:35.127Z,97115.31
2023-04-15T15:52:39.505Z,97134.44
2023-04-15T15:55:42.947Z,97130.56
2023-04-15T15:58:46.866Z,97128.38
2023-04-15T16:01:52.507Z,97130.75
2023-04-15T16:04:58.120Z,97123.25
2023-04-15T16:08:01.888Z,97126.84
2023-04-15T16:11:06.421Z,97126.63
2023-04-15T16:14:11.035Z,97121.63
2023-04-15T16:17:16.431Z,97127.69
2023-04-15T16:20:21.456Z,97123.81
2023-04-15T16:23:25.227Z,97124.34
2023-04-15T16:26:28.913Z,97122.72
2023-04-15T16:29:34.456Z,97121.22
2023-04-15T16:32:39.383Z,97129.44
2023-04-15T16:35:43.212Z,97129.00
2023-04-15T16:38:48.829Z,97131.28
2023-04-15T16:41:52.654Z,97134.66
2023-04-15T16:44:56.681Z,97136.47
2023-04-15T16:48:01.935Z,97140.94
2023-04-15T16:51:05.907Z,97141.91
2023-04-15T16:54:10.108Z,97146.78
2023-04-15T16:57:13.718Z,97158.69
2023-04-15T17:00:17.815Z,97151.53
2023-04-15T17:03:23.422Z,97152.94
2023-04-15T17:06:27.864Z,97160.81
2023-04-15T17:09:31.356Z,97168.97
2023-04-15T17:12:35.957Z,97164.03
2023-04-15T17:15:40.727Z,97166.78
2023-04-15T17:19:01.419Z,97170.16
2023-04-15T17:22:06.419Z,97181.19
2023-04-15T17:25:11.131Z,97189.34
2023-04-15T17:28:19.990Z,97197.97
2023-04-15T17:31:25.805Z,97196.56
2023-04-15T17:34:51.558Z,97202.19
2023-04-15T17:37:55.578Z,97200.59
2023-04-15T17:41:18.948Z,97209.22
2023-04-15T17:44:42.763Z,97223.06
2023-04-15T17:48:06.262Z,97224.75
2023-04-15T17:51:31.833Z,97226.66
2023-04-15T17:55:03.787Z,97236.75
2023-04-15T17:58:28.194Z,97241.22
2023-04-15T18:01:51.972Z,97245.28
2023-04-15T18:05:16.474Z,97253.25
2023-04-15T18:08:42.621Z,97257.16
2023-04-15T18:12:07.776Z,97263.09
2023-04-15T18:15:31.619Z,97272.78
2023-04-15T18:18:55.868Z,97270.25
2023-04-15T18:22:00.246Z,97276.13
2023-04-15T18:25:06.958Z,97283.28
2023-04-15T18:28:10.579Z,97283.56
2023-04-15T18:31:14.302Z,97285.84
2023-04-15T18:34:17.916Z,97290.69
2023-04-15T18:37:21.763Z,97302.16
2023-04-15T18:40:26.712Z,97302.91
2023-04-15T18:43:32.384Z,97307.78
2023-04-15T18:46:36.216Z,97316.16
2023-04-15T18:49:41.597Z,97327.31
2023-04-15T18:52:45.103Z,97325.53
2023-04-15T18:55:51.025Z,97319.91
2023-04-15T18:59:28.105Z,97334.47
2023-04-15T19:02:19.693Z,97322.06
2023-04-15T19:05:25.429Z,97326.94
2023-04-15T19:08:29.921Z,97338.03
2023-04-15T19:11:34.875Z,97331.63
2023-04-15T19:14:38.595Z,97335.22
2023-04-15T19:17:42.693Z,97334.50
2023-04-15T19:20:46.717Z,97339.09
2023-04-15T19:23:50.303Z,97334.47
2023-04-15T19:26:57.191Z,97342.41
2023-04-15T19:30:01.967Z,97337.75
2023-04-15T19:33:05.768Z,97339.72
2023-04-15T19:36:09.385Z,97337.97
2023-04-15T19:39:13.663Z,97326.00
2023-04-15T19:42:18.509Z,97327.19
2023-04-15T19:45:22.256Z,97331.44
2023-04-15T19:48:26.500Z,97333.19
2023-04-15T19:51:31.974Z,97330.06
2023-04-15T19:54:35.540Z,97320.97
2023-04-15T19:57:41.041Z,97334.22
2023-04-15T20:00:44.645Z,97333.50
2023-04-15T20:03:48.897Z,97338.53
2023-04-15T20:06:52.599Z,97332.44
2023-04-15T20:09:56.465Z,97339.28
2023-04-15T20:13:01.259Z,97342.84
2023-04-15T20:16:07.939Z,97333.38
2023-04-15T20:19:12.417Z,97339.22
2023-04-15T20:22:16.377Z,97333.56
2023-04-15T20:25:20.070Z,97330.53
2023-04-15T20:28:27.513Z,97342.41
2023-04-15T20:31:31.181Z,97340.81
2023-04-15T20:34:35.150Z,97344.25
2023-04-15T20:37:40.468Z,97337.81
2023-04-15T20:40:44.465Z,97342.41
2023-04-15T20:43:49.254Z,97344.31
2023-04-15T20:46:53.663Z,97342.38
2023-04-15T20:49:57.048Z,97353.53
2023-04-15T20:53:01.363Z,97349.47
2023-04-15T20:56:06.679Z,97358.34
2023-04-15T20:59:12.089Z,97355.56
2023-04-15T21:02:15.890Z,97355.50
2023-04-15T21:05:21.662Z,97361.88
2023-04-15T21:08:55.113Z,97361.44
2023-04-15T21:12:27.100Z,97357.44
2023-04-15T21:15:31.931Z,97362.91
2023-04-15T21:18:35.780Z,97363.28
2023-04-15T21:21:39.306Z,97367.91
2023-04-15T21:24:43.064Z,97362.38
2023-04-15T21:27:46.752Z,97360.81
2023-04-15T21:30:51.781Z,97353.81
2023-04-15T21:33:55.361Z,97362.03
2023-04-15T21:36:59.036Z,97357.91
2023-04-15T21:40:02.455Z,97356.84
2023-04-15T21:43:06.328Z,97359.59
2023-04-15T21:46:22.248Z,97364.19
2023-04-15T21:49:30.664Z,97356.94
2023-04-15T21:52:34.222Z,97381.38
2023-04-15T21:55:38.117Z,97367.97
2023-04-15T21:58:43.880Z,97367.25
2023-04-15T22:01:51.679Z,97360.69
2023-04-15T22:04:55.282Z,97373.78
2023-04-15T22:08:04.680Z,97374.94
2023-04-15T22:11:08.081Z,97376.00
2023-04-15T22:14:11.816Z,97373.84
2023-04-15T22:17:16.618Z,97372.84
2023-04-15T22:20:20.364Z,97378.72
2023-04-15T22:23:23.865Z,97382.34
2023-04-15T22:26:28.210Z,97385.19
2023-04-15T22:29:32.427Z,97385.84
2023-04-15T22:32:39.213Z,97385.22
2023-04-15T22:35:42.799Z,97389.53
2023-04-15T22:38:47.710Z,97385.09
2023-04-15T22:41:53.133Z,97382.28
2023-04-15T22:44:56.951Z,97392.88
2023-04-15T22:48:02.627Z,97391.75
2023-04-15T22:51:06.667Z,97386.94
2023-04-15T22:54:10.157Z,97393.03
2023-04-15T22:57:14.056Z,97396.63
2023-04-15T23:00:17.636Z,97396.56
2023-04-15T23:03:22.924Z,97399.72
2023-04-15T23:06:27.141Z,97390.59
2023-04-15T23:09:31.115Z,97407.13
2023-04-15T23:12:34.700Z,97399.53
2023-04-15T23:15:38.393Z,97400.31
2023-04-15T23:18:43.196Z,97398.19
2023-04-15T23:21:47.087Z,97405.50
2023-04-15T23:24:50.475Z,97393.00
2023-04-15T23:27:54.322Z,97395.81
2023-04-15T23:31:00.437Z,97399.56
2023-04-15T23:34:06.486Z,97404.59
2023-04-15T23:37:10.189Z,97396.03
2023-04-15T23:40:15.684Z,97401.94
2023-04-15T23:43:19.208Z,97393.44
2023-04-15T23:46:23.059Z,97391.41
2023-04-15T23:49:27.925Z,97390.84
2023-04-15T23:52:31.926Z,97400.44
2023-04-15T23:55:35.954Z,97389.19
2023-04-15T23:58:39.727Z,97386.59
